Terminal Aerodrome Forecast
Issued by NWS Green Bay, WI

Home | Current Version | Previous Version | Text Only | Print | Product List | Glossary Off
Versions: 1 2 3 4 5 6 7 8 9 10 11 12 13 14 15 16 17 18 19 20 21 22 23 24 25 26 27 28 29 30 31 32 33 34 35 36 37 38 39 40 41 42 43 44 45 46 47 48 49 50

582
FTUS43 KGRB 031438 AAB
TAFGRB
TAF AMD
KGRB 031438Z 0315/0412 01011G16KT 1 1/2SM -SN BR SCT008 OVC014
      TEMPO 0315/0318 3/4SM -SN BR OVC008
     FM031800 33013G18KT 6SM -SHSN BR BKN012 OVC025
     FM032100 32014G20KT P6SM -SHSN SCT015 BKN025
     FM032300 31010KT P6SM SCT025 BKN040=

USA.gov is the U.S. government's official web portal to all federal, state and local government web resources and services.